Equality, Alabama
Current Conditions -  °F | °C
As of 4:35 AM on Thursday 27 Nov 2014 (Local Time) from KALX Reporting Station
Clear Clear  
Wind Chill: 34°   Ceiling: Unl
Heat Index: 34°   Visibility: 10mi
Dew Point: 28°   Wind: 0mph
Humidity: 79%   Direction: NA
Pressure: 30.22"   Gusts: NA
Location:  32.76°N, 86.1°W
Report Text: KALX 271035Z AUTO 00000KT 10SM CLR 01/M02 A3022 RMK AO2 T00111021
Loading
Personal Weather Stations






























Interactive Weather Map New forecast layout! Learn more

10-Day Weather Forecast

Advertisements
Track Severe Weather on mobile